Time;durP1;ratioP1;P1;durP2;ratioP2;P2;SDS_P1;SDS_P2;PMS_P1;PMS_P2;Temp;Humidity;BMP_temperature;BMP_pressure;BME280_temperature;BME280_humidity;BME280_pressure;Samples;Min_cycle;Max_cycle;Signal;HPM_P1;HPM_P2
2023/03/17 00:04:22;;;;;;;10.97;2.90;;;;;;;14.25;77.37;99778.28;10303477;28;96796;-75
2023/03/17 00:09:27;;;;;;;;;;;;;;;14.18;78.01;99782.25;10291831;28;96648;-75
2023/03/17 00:14:30;;;;;;;6.88;2.55;;;;;;;14.24;77.49;99779.22;10292335;28;96698;-75
2023/03/17 00:19:35;;;;;;;9.77;3.10;;;;;;;14.17;78.14;99777.91;10291633;28;96852;-75
2023/03/17 00:24:39;;;;;;;12.93;3.25;;;;;;;14.06;78.48;99778.56;10330685;28;96741;-75
2023/03/17 00:29:43;;;;;;;12.43;5.05;;;;;;;13.84;79.26;99785.22;10330663;28;97156;-75
2023/03/17 00:34:46;;;;;;;8.40;3.40;;;;;;;13.88;79.06;99784.09;10331636;28;96548;-75
2023/03/17 00:39:51;;;;;;;11.23;4.00;;;;;;;13.95;79.07;99770.38;10331337;28;96691;-75
2023/03/17 00:44:54;;;;;;;14.40;5.82;;;;;;;13.88;79.38;99776.16;10330823;28;96690;-75
2023/03/17 00:49:57;;;;;;;15.65;4.97;;;;;;;13.97;78.68;99773.78;10331508;28;96644;-75
2023/03/17 00:55:02;;;;;;;20.30;7.97;;;;;;;14.01;78.68;99766.53;10305519;28;96805;-76
2023/03/17 01:00:13;;;;;;;13.88;5.95;;;;;;;14.18;78.21;99776.94;10289478;28;97731;-76
2023/03/17 01:05:17;;;;;;;20.42;10.77;;;;;;;13.97;79.36;99787.03;10298201;28;96892;-76
2023/03/17 01:10:24;;;;;;;13.32;5.65;;;;;;;14.02;79.37;99773.56;10297648;28;96721;-76
2023/03/17 01:15:30;;;;;;;11.68;4.05;;;;;;;13.91;79.95;99774.19;10296396;28;96815;-75
2023/03/17 01:20:34;;;;;;;10.82;3.60;;;;;;;14.04;79.50;99776.97;10301959;28;96853;-75
2023/03/17 01:25:41;;;;;;;30.40;14.93;;;;;;;14.07;79.48;99774.13;10337462;28;96773;-75
2023/03/17 01:30:45;;;;;;;8.57;3.50;;;;;;;13.90;79.90;99769.81;10297339;28;96891;-75
2023/03/17 01:35:50;;;;;;;9.00;3.10;;;;;;;13.91;79.84;99783.91;10296085;28;97066;-75
2023/03/17 01:40:55;;;;;;;15.95;6.57;;;;;;;13.86;80.00;99775.41;10295333;28;96713;-75
2023/03/17 01:46:28;;;;;;;16.42;7.80;;;;;;;13.78;80.34;99767.91;10296073;28;96754;-75
2023/03/17 01:51:34;;;;;;;9.75;3.00;;;;;;;13.92;79.23;99753.88;10333460;28;96674;-75
2023/03/17 01:56:42;;;;;;;10.50;2.50;;;;;;;13.87;78.98;99766.50;10337017;28;96708;-76
2023/03/17 02:01:48;;;;;;;11.10;2.90;;;;;;;13.67;80.33;99759.81;10320386;28;96815;-75
2023/03/17 02:06:52;;;;;;;8.98;2.53;;;;;;;13.81;79.78;99767.75;10295112;28;96647;-76
2023/03/17 02:12:04;;;;;;;10.88;2.70;;;;;;;13.92;79.34;99769.75;10292946;28;96688;-75
2023/03/17 02:17:07;;;;;;;6.88;2.38;;;;;;;13.85;79.83;99769.25;10295296;28;96932;-75
2023/03/17 02:22:12;;;;;;;9.77;2.50;;;;;;;13.82;80.07;99772.09;10296852;28;96652;-76
2023/03/17 02:27:18;;;;;;;;;;;;;;;13.73;80.86;99763.88;10335361;28;96652;-76
2023/03/17 02:32:21;;;;;;;5.68;2.05;;;;;;;13.74;80.05;99762.91;10335748;28;96658;-75
2023/03/17 02:37:26;;;;;;;6.38;1.80;;;;;;;13.76;79.92;99772.47;10305533;28;96695;-75
2023/03/17 02:42:29;;;;;;;3.97;1.42;;;;;;;13.69;79.99;99750.00;10293496;28;96699;-75
2023/03/17 02:47:32;;;;;;;4.28;1.42;;;;;;;13.63;80.42;99743.28;10294335;28;97448;-75
2023/03/17 02:52:37;;;;;;;7.05;1.50;;;;;;;13.64;80.50;99742.31;10322668;28;97412;-75
2023/03/17 02:57:40;;;;;;;4.72;1.23;;;;;;;13.61;80.29;99750.44;10333815;28;96672;-76
2023/03/17 03:02:43;;;;;;;2.08;0.82;;;;;;;13.60;80.07;99772.53;10333233;28;97229;-75
2023/03/17 03:07:48;;;;;;;5.03;1.38;;;;;;;13.45;80.08;99764.63;10334544;28;96611;-76
2023/03/17 03:12:51;;;;;;;6.60;1.30;;;;;;;13.43;80.89;99800.91;10333682;28;96684;-76
2023/03/17 03:17:54;;;;;;;5.20;1.45;;;;;;;13.43;81.28;99795.63;10334207;28;96860;-75
2023/03/17 03:22:59;;;;;;;5.60;1.48;;;;;;;13.39;80.72;99786.16;10333389;28;96788;-76
2023/03/17 03:28:02;;;;;;;3.65;1.20;;;;;;;13.49;80.48;99784.69;10307264;28;96890;-76
2023/03/17 03:33:05;;;;;;;3.22;0.90;;;;;;;13.39;79.70;99792.31;10292695;28;97248;-76
2023/03/17 03:38:11;;;;;;;8.27;1.50;;;;;;;13.43;79.29;99785.88;10293247;28;96674;-75
2023/03/17 03:43:15;;;;;;;5.30;1.33;;;;;;;13.51;79.02;99788.94;10292438;28;96539;-76
2023/03/17 03:48:25;;;;;;;7.85;1.65;;;;;;;13.51;79.15;99796.88;10318552;28;97469;-76
2023/03/17 03:53:30;;;;;;;10.98;1.98;;;;;;;13.56;79.03;99809.81;10332206;28;96634;-76
2023/03/17 03:58:33;;;;;;;;;;;;;;;13.29;79.64;99814.88;10332924;28;96718;-76
2023/03/17 04:03:36;;;;;;;5.07;1.55;;;;;;;13.40;79.46;99822.19;10293574;28;96558;-76
2023/03/17 04:08:41;;;;;;;8.35;2.22;;;;;;;13.55;79.55;99816.88;10291552;28;96747;-75
2023/03/17 04:13:44;;;;;;;6.47;1.85;;;;;;;13.49;79.48;99809.31;10291558;28;96555;-75
2023/03/17 04:18:47;;;;;;;10.48;2.35;;;;;;;13.50;79.26;99823.41;10291906;28;96720;-75
2023/03/17 04:23:52;;;;;;;5.28;1.70;;;;;;;13.58;78.89;99831.72;10307130;28;96774;-75
2023/03/17 04:28:55;;;;;;;5.55;1.58;;;;;;;13.61;78.87;99835.03;10332510;28;97146;-76
2023/03/17 04:33:58;;;;;;;9.60;2.15;;;;;;;13.63;78.62;99842.88;10322646;28;96698;-75
2023/03/17 04:39:03;;;;;;;8.20;1.67;;;;;;;13.67;78.29;99847.06;10296486;28;96696;-76
2023/03/17 04:44:07;;;;;;;11.52;2.33;;;;;;;13.52;79.21;99843.50;10296653;28;97263;-76
2023/03/17 04:49:10;;;;;;;7.45;1.60;;;;;;;13.47;78.38;99840.28;10306390;28;96640;-75
2023/03/17 04:54:15;;;;;;;9.82;2.92;;;;;;;13.29;79.41;99840.50;10312379;28;97315;-75
2023/03/17 04:59:18;;;;;;;7.28;1.70;;;;;;;13.22;79.92;99837.34;10338070;28;96627;-76
2023/03/17 05:04:21;;;;;;;8.18;1.70;;;;;;;13.22;79.87;99839.13;10337726;28;96730;-75
2023/03/17 05:09:35;;;;;;;7.35;1.70;;;;;;;13.25;79.29;99839.81;10337310;28;96772;-76
2023/03/17 05:14:38;;;;;;;6.78;1.65;;;;;;;13.37;78.95;99864.69;10337825;28;97427;-75
2023/03/17 05:19:41;;;;;;;5.78;1.45;;;;;;;13.24;80.08;99866.31;10338701;28;96925;-75
2023/03/17 05:24:46;;;;;;;6.78;1.35;;;;;;;13.29;79.84;99870.38;10330606;28;97153;-75
2023/03/17 05:29:49;;;;;;;10.25;2.25;;;;;;;13.19;80.52;99868.38;10295677;28;96657;-75
2023/03/17 05:34:53;;;;;;;10.05;2.78;;;;;;;13.17;80.02;99857.88;10295206;28;97138;-75
2023/03/17 05:39:58;;;;;;;9.07;2.65;;;;;;;12.95;80.95;99857.38;10295730;28;96739;-75
2023/03/17 05:45:01;;;;;;;;;;;;;;;12.67;83.18;99856.34;10297133;28;96728;-75
2023/03/17 05:50:06;;;;;;;7.55;1.80;;;;;;;12.78;81.73;99862.72;10297266;28;96787;-75
2023/03/17 05:55:11;;;;;;;9.57;3.60;;;;;;;12.65;81.65;99856.44;10336448;28;96880;-75
2023/03/17 06:00:15;;;;;;;;;;;;;;;12.69;81.73;99865.88;10316480;28;96622;-75
2023/03/17 06:05:18;;;;;;;27.20;13.20;;;;;;;12.57;81.75;99863.03;10294984;28;96750;-75
2023/03/17 06:10:23;;;;;;;12.48;4.75;;;;;;;12.62;81.76;99876.81;10295581;28;97246;-75
2023/03/17 06:15:27;;;;;;;8.57;2.58;;;;;;;12.74;81.26;99878.84;10295112;28;97632;-76
2023/03/17 06:20:31;;;;;;;8.57;2.73;;;;;;;12.70;81.79;99886.06;10294050;28;96612;-76
2023/03/17 06:25:36;;;;;;;8.43;2.47;;;;;;;12.50;82.37;99878.31;10307966;28;96907;-75
2023/03/17 06:30:39;;;;;;;7.97;1.88;;;;;;;12.55;82.12;99876.28;10335293;28;96665;-75
2023/03/17 06:35:42;;;;;;;11.45;4.18;;;;;;;12.48;83.33;99898.66;10304051;28;96727;-75
2023/03/17 06:40:47;;;;;;;12.77;2.40;;;;;;;12.63;82.69;99899.63;10293860;28;97231;-75
2023/03/17 06:45:51;;;;;;;15.63;4.82;;;;;;;12.67;82.42;99901.22;10296337;28;96583;-75
2023/03/17 06:50:55;;;;;;;8.75;2.28;;;;;;;12.62;83.10;99904.06;10317968;28;96739;-75
2023/03/17 06:55:59;;;;;;;7.57;2.70;;;;;;;12.77;82.11;99913.00;10303231;28;96689;-75
2023/03/17 07:01:03;;;;;;;13.82;2.13;;;;;;;12.78;82.17;99920.81;10334047;28;96968;-75
2023/03/17 07:06:07;;;;;;;16.55;6.72;;;;;;;12.77;82.03;99932.31;10332029;28;97348;-75
2023/03/17 07:11:12;;;;;;;11.83;2.40;;;;;;;12.80;81.63;99926.00;10292747;28;96713;-75
2023/03/17 07:16:18;;;;;;;17.55;2.35;;;;;;;12.89;81.58;99925.53;10291778;28;96880;-76
2023/03/17 07:21:21;;;;;;;9.00;2.30;;;;;;;12.93;81.32;99921.78;10292632;28;96665;-76
2023/03/17 07:26:26;;;;;;;12.10;3.38;;;;;;;12.96;80.98;99933.03;10321669;28;97015;-76
2023/03/17 07:31:29;;;;;;;11.35;2.42;;;;;;;13.12;80.95;99933.88;10333613;28;96510;-75
2023/03/17 07:36:33;;;;;;;8.35;2.65;;;;;;;13.18;80.84;99948.56;10333190;28;96750;-75
2023/03/17 07:41:37;;;;;;;7.35;2.10;;;;;;;13.18;81.58;99944.13;10332324;28;96855;-76
2023/03/17 07:46:41;;;;;;;10.07;2.08;;;;;;;13.20;80.93;99938.75;10333245;28;96674;-75
2023/03/17 07:51:44;;;;;;;9.23;2.08;;;;;;;13.29;80.75;99957.59;10333822;28;96672;-75
2023/03/17 07:56:49;;;;;;;11.50;3.45;;;;;;;13.30;81.29;99961.09;10332268;28;96737;-75
2023/03/17 08:01:52;;;;;;;15.27;2.80;;;;;;;13.44;80.60;99967.31;10332471;28;96634;-75
2023/03/17 08:06:55;;;;;;;12.75;3.75;;;;;;;13.31;81.72;99976.03;10331520;28;96575;-75
2023/03/17 08:12:00;;;;;;;11.27;2.38;;;;;;;13.29;81.26;99968.16;10335180;28;96508;-75
2023/03/17 08:17:04;;;;;;;11.82;2.83;;;;;;;13.39;81.02;99989.66;10338780;28;97147;-75
2023/03/17 08:22:07;;;;;;;13.10;3.22;;;;;;;13.35;81.15;99998.69;10339537;28;96575;-75
2023/03/17 08:27:12;;;;;;;9.48;2.08;;;;;;;13.52;80.66;99994.19;10339286;28;96834;-75
2023/03/17 08:32:16;;;;;;;6.32;1.73;;;;;;;15.58;76.42;99987.94;10327807;28;96753;-75
2023/03/17 08:37:19;;;;;;;8.55;2.30;;;;;;;17.43;71.26;99985.75;10297955;28;96667;-76
2023/03/17 08:42:24;;;;;;;5.55;1.65;;;;;;;19.89;66.50;99998.66;10298495;28;96816;-76
2023/03/17 08:47:27;;;;;;;7.72;1.75;;;;;;;20.02;63.84;99986.84;10297704;28;96708;-76
2023/03/17 08:52:31;;;;;;;8.52;2.13;;;;;;;21.01;60.06;99985.50;10297702;28;96553;-76
2023/03/17 08:57:36;;;;;;;7.13;1.85;;;;;;;21.27;58.10;99983.25;10318787;28;96748;-76
2023/03/17 09:02:41;;;;;;;11.50;2.78;;;;;;;19.00;62.79;99979.19;10337896;28;96549;-76
2023/03/17 09:07:45;;;;;;;8.93;2.67;;;;;;;19.57;60.76;99982.59;10314182;28;96764;-75
2023/03/17 09:12:50;;;;;;;6.07;2.20;;;;;;;22.42;54.55;99981.63;10297596;28;96919;-76
2023/03/17 09:17:53;;;;;;;10.07;2.85;;;;;;;22.71;53.19;99989.69;10297101;28;96971;-76
2023/03/17 09:22:57;;;;;;;8.07;2.30;;;;;;;22.18;52.37;99982.06;10296319;28;96925;-76
2023/03/17 09:28:02;;;;;;;8.97;2.93;;;;;;;21.22;53.21;99974.78;10309162;28;96700;-76
2023/03/17 09:33:05;;;;;;;7.10;2.50;;;;;;;21.67;51.45;99977.88;10338270;28;96667;-76
2023/03/17 09:38:10;;;;;;;6.53;2.63;;;;;;;22.62;49.13;99948.47;10337505;28;96822;-76
2023/03/17 09:43:26;;;;;;;7.53;2.25;;;;;;;22.10;49.25;99967.69;10300806;28;96723;-76
2023/03/17 09:48:40;;;;;;;8.43;2.50;;;;;;;20.99;50.44;99967.88;10314355;28;97091;-77
2023/03/17 09:53:51;;;;;;;9.10;2.95;;;;;;;18.29;59.32;99978.50;10336186;28;96602;-76
2023/03/17 09:58:59;;;;;;;9.73;3.35;;;;;;;17.13;64.53;99982.63;10310626;28;97216;-75
2023/03/17 10:04:03;;;;;;;9.52;2.60;;;;;;;16.26;66.89;100002.81;10294878;28;98156;-76
2023/03/17 10:09:18;;;;;;;12.80;2.67;;;;;;;15.37;71.40;100008.69;10294565;28;96926;-76
2023/03/17 10:14:38;;;;;;;8.38;1.80;;;;;;;15.20;72.45;100002.72;10295171;28;96860;-75
2023/03/17 10:19:46;;;;;;;9.60;2.35;;;;;;;14.85;73.01;100007.53;10294181;28;96781;-75
2023/03/17 10:24:52;;;;;;;5.53;2.00;;;;;;;15.57;72.19;100008.28;10295350;28;97866;-75
2023/03/17 10:29:57;;;;;;;11.25;2.30;;;;;;;15.09;72.91;100015.78;10322153;28;96939;-76
2023/03/17 10:35:01;;;;;;;8.15;2.35;;;;;;;15.06;73.14;100022.09;10293033;28;97281;-75
2023/03/17 10:40:09;;;;;;;11.90;3.30;;;;;;;14.94;74.63;100028.16;10292816;28;96650;-75
2023/03/17 10:45:16;;;;;;;8.55;2.42;;;;;;;15.11;74.46;100029.78;10293770;28;97267;-76
2023/03/17 10:50:23;;;;;;;11.18;2.33;;;;;;;15.30;73.27;100038.34;10294151;28;97591;-75
2023/03/17 10:55:31;;;;;;;11.50;2.90;;;;;;;15.87;72.14;100046.09;10292968;28;97185;-76
2023/03/17 11:00:37;;;;;;;11.13;2.80;;;;;;;16.93;68.96;100044.28;10321037;28;96857;-75
2023/03/17 11:05:53;;;;;;;8.52;2.97;;;;;;;18.59;64.48;100045.50;10318769;28;96891;-76
2023/03/17 11:10:57;;;;;;;11.48;2.70;;;;;;;20.34;60.75;100064.38;10292824;28;96664;-76
2023/03/17 11:16:10;;;;;;;11.60;2.78;;;;;;;18.42;62.22;100065.38;10293371;28;96576;-76
2023/03/17 11:21:20;;;;;;;12.50;2.78;;;;;;;17.33;67.43;100087.59;10293054;28;96742;-76
2023/03/17 11:26:38;;;;;;;8.05;1.55;;;;;;;15.50;70.92;100107.75;10292171;28;96819;-76
2023/03/17 11:31:51;;;;;;;8.90;2.33;;;;;;;15.29;72.62;100114.38;10332749;28;97446;-75
2023/03/17 11:37:05;;;;;;;6.82;1.92;;;;;;;15.00;74.04;100112.59;10333386;28;96774;-75
2023/03/17 11:42:15;;;;;;;13.80;2.83;;;;;;;15.10;74.43;100116.38;10298063;28;96750;-75
2023/03/17 11:47:41;;;;;;;11.57;2.40;;;;;;;15.03;75.50;100123.00;10291700;28;96650;-75
2023/03/17 11:52:59;;;;;;;10.50;2.80;;;;;;;15.18;75.44;100127.38;10291971;28;96668;-76
2023/03/17 11:58:08;;;;;;;9.98;2.58;;;;;;;15.09;74.48;100119.13;10299847;28;96857;-76
2023/03/17 12:03:21;;;;;;;15.68;2.72;;;;;;;15.72;73.41;100121.38;10332262;28;97211;-75
2023/03/17 12:08:30;;;;;;;10.25;2.42;;;;;;;16.16;71.85;100120.34;10333279;28;96675;-76
2023/03/17 12:13:38;;;;;;;9.43;2.65;;;;;;;16.32;71.33;100127.25;10318556;28;96656;-76
2023/03/17 12:18:53;;;;;;;11.70;2.30;;;;;;;16.01;70.91;100124.00;10291476;28;97472;-75
2023/03/17 12:24:01;;;;;;;10.73;2.63;;;;;;;16.10;70.86;100116.28;10289943;28;97113;-76
2023/03/17 12:29:12;;;;;;;11.00;2.28;;;;;;;16.05;70.30;100128.16;10296070;28;96867;-76
2023/03/17 12:34:23;;;;;;;9.57;2.22;;;;;;;16.25;70.72;100135.69;10291125;28;96752;-76
2023/03/17 12:39:32;;;;;;;12.80;2.60;;;;;;;16.00;70.88;100135.53;10290717;28;96782;-75
2023/03/17 12:44:59;;;;;;;9.10;2.25;;;;;;;16.01;71.91;100137.25;10290286;28;96617;-75
2023/03/17 12:50:27;;;;;;;9.88;2.50;;;;;;;15.90;72.15;100140.59;10318331;28;97171;-76
2023/03/17 12:55:34;;;;;;;12.70;2.88;;;;;;;15.93;71.52;100150.19;10331352;28;96633;-76
2023/03/17 13:00:49;;;;;;;7.57;2.50;;;;;;;15.91;70.72;100145.81;10337204;28;96700;-76
2023/03/17 13:05:59;;;;;;;8.43;2.13;;;;;;;16.02;69.75;100139.81;10313588;28;96825;-75
2023/03/17 13:11:19;;;;;;;10.45;2.22;;;;;;;16.28;69.04;100140.78;10296985;28;96721;-76
2023/03/17 13:16:28;;;;;;;7.28;1.70;;;;;;;16.64;67.02;100138.41;10295911;28;96745;-76
2023/03/17 13:21:34;;;;;;;5.03;1.40;;;;;;;19.18;61.53;100141.31;10296771;28;96795;-76
2023/03/17 13:26:53;;;;;;;7.10;1.45;;;;;;;19.75;57.01;100129.78;10296210;28;96661;-76
2023/03/17 13:32:30;;;;;;;4.13;1.48;;;;;;;18.76;57.96;100111.72;10327153;28;96756;-76
2023/03/17 13:37:45;;;;;;;7.07;2.03;;;;;;;18.47;60.83;100113.88;10331361;28;96671;-76
2023/03/17 13:43:08;;;;;;;10.10;1.95;;;;;;;19.41;57.39;100096.88;10295530;28;97338;-76
2023/03/17 13:48:35;;;;;;;6.35;1.60;;;;;;;19.73;54.44;100086.31;10295244;28;96790;-76
2023/03/17 13:53:41;;;;;;;7.45;2.05;;;;;;;19.21;57.42;100097.53;10296202;28;96682;-76
2023/03/17 13:59:05;;;;;;;9.10;2.30;;;;;;;17.77;61.85;100103.97;10295502;28;96898;-76
2023/03/17 14:04:19;;;;;;;12.23;3.08;;;;;;;17.28;63.86;100103.88;10294696;28;97007;-76
2023/03/17 14:09:37;;;;;;;11.55;2.30;;;;;;;16.91;64.91;100107.38;10293829;28;96785;-76
2023/03/17 14:14:52;;;;;;;8.77;2.40;;;;;;;19.12;61.74;100095.56;10295152;28;96766;-76
2023/03/17 14:20:06;;;;;;;9.43;2.10;;;;;;;20.06;58.02;100092.50;10294532;28;96635;-76
2023/03/17 14:25:17;;;;;;;;;;;;;;;19.02;57.95;100092.78;10294999;28;96616;-76
2023/03/17 14:30:22;;;;;;;8.30;2.58;;;;;;;18.24;60.74;100081.88;10312346;28;96781;-75
2023/03/17 14:35:29;;;;;;;9.30;2.10;;;;;;;17.87;61.07;100075.72;10335489;28;96653;-76
2023/03/17 14:40:35;;;;;;;4.88;1.45;;;;;;;17.63;59.99;100065.03;10335506;28;98632;-76
2023/03/17 14:45:52;;;;;;;5.55;1.30;;;;;;;18.07;59.83;100057.31;10328772;28;96767;-76
2023/03/17 14:51:04;;;;;;;3.08;1.20;;;;;;;19.16;56.77;100071.19;10293642;28;96778;-76
2023/03/17 14:56:09;;;;;;;4.93;1.23;;;;;;;18.24;57.18;100066.75;10293520;28;96772;-76
2023/03/17 15:01:16;;;;;;;5.38;1.52;;;;;;;17.58;59.28;100068.97;10308736;28;96614;-76
2023/03/17 15:06:24;;;;;;;6.40;1.38;;;;;;;17.48;59.64;100074.13;10297391;28;96783;-76
2023/03/17 15:11:38;;;;;;;7.00;1.90;;;;;;;16.86;59.88;100075.75;10292831;28;97263;-76
2023/03/17 15:16:45;;;;;;;5.47;1.93;;;;;;;16.59;62.59;100084.75;10293017;28;96683;-76
2023/03/17 15:21:49;;;;;;;9.75;2.50;;;;;;;16.07;66.00;100086.41;10292492;28;96725;-76
2023/03/17 15:27:01;;;;;;;6.88;1.73;;;;;;;16.10;66.83;100086.25;10292313;28;96983;-75
2023/03/17 15:32:11;;;;;;;7.68;1.85;;;;;;;16.05;67.05;100083.03;10309176;28;96761;-76
2023/03/17 15:37:17;;;;;;;9.07;1.65;;;;;;;16.01;65.97;100081.53;10322874;28;96800;-76
2023/03/17 15:42:24;;;;;;;9.00;1.67;;;;;;;15.78;67.29;100099.78;10292477;28;97006;-75
2023/03/17 15:47:29;;;;;;;5.07;1.40;;;;;;;15.25;70.79;100118.09;10293533;28;96810;-76
2023/03/17 15:52:33;;;;;;;8.70;1.40;;;;;;;15.01;72.81;100132.84;10331814;28;96809;-75
2023/03/17 15:57:37;;;;;;;3.70;1.48;;;;;;;15.09;71.81;100135.03;10293712;28;97004;-76
2023/03/17 16:02:41;;;;;;;5.78;1.30;;;;;;;15.24;71.07;100137.63;10320609;28;97683;-76
2023/03/17 16:07:45;;;;;;;4.53;1.67;;;;;;;15.52;71.04;100143.00;10332504;28;96833;-76
2023/03/17 16:12:51;;;;;;;5.53;1.50;;;;;;;15.64;70.33;100142.22;10308185;28;96660;-75
2023/03/17 16:17:57;;;;;;;6.50;2.13;;;;;;;15.91;68.41;100143.16;10291481;28;96971;-75
2023/03/17 16:23:07;;;;;;;4.90;1.88;;;;;;;15.89;67.86;100136.25;10291009;28;96669;-76
2023/03/17 16:28:17;;;;;;;4.78;1.30;;;;;;;15.88;66.75;100137.19;10292121;28;96625;-75
2023/03/17 16:33:22;;;;;;;6.13;1.42;;;;;;;15.81;66.55;100130.56;10321719;28;96882;-76
2023/03/17 16:38:28;;;;;;;5.15;1.50;;;;;;;16.11;65.79;100122.44;10339290;28;96697;-75
2023/03/17 16:43:36;;;;;;;6.07;1.40;;;;;;;16.00;65.64;100120.47;10337789;28;96619;-76
2023/03/17 16:48:39;;;;;;;7.80;1.92;;;;;;;15.56;66.19;100123.25;10299415;28;96694;-76
2023/03/17 16:53:43;;;;;;;5.15;1.63;;;;;;;15.40;66.62;100106.63;10297286;28;97072;-76
2023/03/17 16:58:48;;;;;;;8.43;1.98;;;;;;;15.27;67.48;100128.63;10297180;28;96708;-76
2023/03/17 17:03:51;;;;;;;11.48;3.03;;;;;;;14.71;71.61;100163.78;10321294;28;97207;-76
2023/03/17 17:08:55;;;;;;;6.03;1.50;;;;;;;14.09;74.26;100167.31;10338379;28;96651;-75
2023/03/17 17:13:59;;;;;;;6.38;1.80;;;;;;;14.11;74.93;100172.53;10338345;28;97265;-75
2023/03/17 17:19:03;;;;;;;5.50;1.55;;;;;;;13.68;77.07;100179.28;10337729;28;96872;-75
2023/03/17 17:24:10;;;;;;;3.93;1.87;;;;;;;13.83;76.83;100177.59;10337608;28;96575;-75
2023/03/17 17:29:15;;;;;;;4.55;1.60;;;;;;;13.84;76.85;100181.94;10337413;28;96529;-75
2023/03/17 17:34:18;;;;;;;6.63;1.80;;;;;;;13.91;76.45;100178.91;10336301;28;97391;-75
2023/03/17 17:39:21;;;;;;;4.72;2.17;;;;;;;14.00;76.18;100186.34;10300126;28;96685;-75
2023/03/17 17:44:25;;;;;;;6.60;1.70;;;;;;;14.23;74.95;100195.69;10295329;28;96685;-75
2023/03/17 17:49:29;;;;;;;6.93;1.70;;;;;;;14.39;74.85;100201.81;10295731;28;96812;-75
2023/03/17 17:54:33;;;;;;;4.78;1.50;;;;;;;14.40;74.57;100206.19;10296035;28;97009;-76
2023/03/17 17:59:38;;;;;;;5.30;1.80;;;;;;;14.16;74.39;100208.38;10295386;28;97039;-75
2023/03/17 18:04:41;;;;;;;5.40;1.58;;;;;;;13.99;75.03;100204.91;10327028;28;96775;-76
2023/03/17 18:09:44;;;;;;;6.30;1.70;;;;;;;13.87;74.96;100210.88;10329838;28;96579;-75
2023/03/17 18:14:49;;;;;;;8.80;2.60;;;;;;;13.82;75.11;100216.41;10294842;28;96673;-75
2023/03/17 18:19:52;;;;;;;5.20;1.88;;;;;;;13.94;74.95;100225.47;10294809;28;96605;-75
2023/03/17 18:24:55;;;;;;;7.55;2.13;;;;;;;14.06;75.07;100232.78;10293296;28;96745;-75
2023/03/17 18:30:00;;;;;;;11.65;3.78;;;;;;;14.11;75.52;100241.31;10294919;28;96743;-75
2023/03/17 18:35:08;;;;;;;8.07;2.78;;;;;;;14.04;75.55;100237.34;10316649;28;96852;-75
2023/03/17 18:40:12;;;;;;;6.90;2.60;;;;;;;14.07;75.43;100239.81;10335719;28;96966;-75
2023/03/17 18:45:22;;;;;;;9.20;3.40;;;;;;;14.00;75.69;100238.38;10314316;28;96886;-75
2023/03/17 18:50:26;;;;;;;10.15;3.40;;;;;;;14.01;75.62;100234.78;10314145;28;96775;-75
2023/03/17 18:55:29;;;;;;;6.97;3.00;;;;;;;13.95;76.07;100233.31;10333732;28;96859;-75
2023/03/17 19:00:34;;;;;;;7.75;3.30;;;;;;;13.89;76.38;100232.81;10329046;28;96824;-75
2023/03/17 19:05:38;;;;;;;9.30;3.10;;;;;;;13.82;76.68;100231.41;10332776;28;96729;-75
2023/03/17 19:10:43;;;;;;;20.37;9.90;;;;;;;13.81;76.55;100240.31;10334456;28;96713;-75
2023/03/17 19:15:47;;;;;;;9.38;4.43;;;;;;;13.75;77.21;100251.19;10333356;28;97052;-75
2023/03/17 19:20:51;;;;;;;9.48;4.13;;;;;;;13.71;77.14;100250.50;10300615;28;96842;-75
2023/03/17 19:25:54;;;;;;;12.45;4.00;;;;;;;13.78;77.17;100259.81;10292582;28;96684;-75
2023/03/17 19:30:59;;;;;;;33.50;15.38;;;;;;;13.71;77.13;100263.72;10292318;28;96760;-75
2023/03/17 19:36:07;;;;;;;163.73;82.45;;;;;;;13.58;77.12;100268.81;10305262;28;96619;-75
2023/03/17 19:41:10;;;;;;;66.47;33.50;;;;;;;13.57;77.07;100277.66;10318355;28;96757;-75
2023/03/17 19:46:15;;;;;;;76.68;39.40;;;;;;;13.64;76.74;100273.75;10333101;28;96668;-75
2023/03/17 19:51:18;;;;;;;41.28;19.88;;;;;;;13.62;77.28;100290.66;10329937;28;97608;-75
2023/03/17 19:56:22;;;;;;;18.00;7.63;;;;;;;13.63;77.10;100285.28;10291837;28;96776;-75
2023/03/17 20:01:27;;;;;;;13.35;6.00;;;;;;;13.60;77.14;100280.16;10291396;28;96831;-75
2023/03/17 20:06:31;;;;;;;24.27;11.68;;;;;;;13.64;77.22;100286.13;10324379;28;97264;-75
2023/03/17 20:11:34;;;;;;;17.58;7.68;;;;;;;13.75;76.79;100282.94;10315425;28;96583;-75
2023/03/17 20:16:39;;;;;;;15.05;5.28;;;;;;;13.72;77.03;100294.53;10304966;28;96855;-75
2023/03/17 20:21:43;;;;;;;76.93;48.40;;;;;;;13.63;77.66;100300.28;10304731;28;96551;-75
2023/03/17 20:26:48;;;;;;;104.32;68.97;;;;;;;13.61;77.67;100297.72;10305062;28;96719;-75
2023/03/17 20:31:52;;;;;;;44.03;26.42;;;;;;;13.69;77.83;100300.00;10304624;28;96601;-75
2023/03/17 20:36:56;;;;;;;36.90;22.23;;;;;;;13.44;78.33;100295.09;10343032;28;96769;-75
2023/03/17 20:42:00;;;;;;;19.88;9.88;;;;;;;13.31;79.24;100307.19;10345027;28;96794;-75
2023/03/17 20:47:05;;;;;;;23.30;11.13;;;;;;;13.36;78.75;100313.09;10304161;28;97040;-75
2023/03/17 20:52:12;;;;;;;16.98;5.72;;;;;;;13.38;78.81;100307.78;10304152;28;97164;-75
2023/03/17 20:57:15;;;;;;;15.35;4.93;;;;;;;13.47;78.69;100318.72;10303113;28;96994;-75
2023/03/17 21:02:22;;;;;;;17.48;5.60;;;;;;;13.51;78.40;100327.34;10303956;28;100584;-75
2023/03/17 21:07:25;;;;;;;17.63;6.70;;;;;;;13.46;78.44;100329.38;10341395;28;96840;-75
2023/03/17 21:12:28;;;;;;;12.38;3.70;;;;;;;13.47;78.38;100329.28;10345263;28;96733;-75
2023/03/17 21:17:33;;;;;;;14.88;4.43;;;;;;;13.62;77.69;100331.16;10328705;28;96848;-75
2023/03/17 21:22:36;;;;;;;;;;;;;;;13.64;78.01;100331.94;10297019;28;96537;-75
2023/03/17 21:27:40;;;;;;;14.93;4.13;;;;;;;13.56;77.70;100334.13;10296427;28;96701;-75
2023/03/17 21:32:45;;;;;;;16.20;3.67;;;;;;;13.44;77.69;100332.09;10297054;28;97004;-75
2023/03/17 21:37:49;;;;;;;13.32;4.28;;;;;;;13.44;77.82;100341.81;10336678;28;96799;-75
2023/03/17 21:42:53;;;;;;;16.33;4.40;;;;;;;13.38;78.01;100339.50;10336668;28;97169;-75
2023/03/17 21:47:57;;;;;;;17.52;4.03;;;;;;;13.36;77.84;100355.41;10336128;28;96873;-75
2023/03/17 21:53:00;;;;;;;19.67;4.35;;;;;;;13.39;77.55;100351.75;10310178;28;96718;-75
2023/03/17 21:58:04;;;;;;;13.27;4.50;;;;;;;13.30;77.79;100362.78;10295298;28;97359;-75
2023/03/17 22:03:09;;;;;;;13.57;4.25;;;;;;;13.38;78.16;100364.09;10296725;28;96854;-75
2023/03/17 22:08:12;;;;;;;15.23;4.57;;;;;;;13.32;78.20;100369.72;10325056;28;96637;-75
2023/03/17 22:13:15;;;;;;;13.48;4.05;;;;;;;13.31;78.49;100367.97;10294895;28;96680;-75
2023/03/17 22:18:20;;;;;;;14.02;3.83;;;;;;;13.26;78.44;100363.88;10294644;28;97024;-75
2023/03/17 22:23:24;;;;;;;;;;;;;;;13.16;78.58;100367.88;10296086;28;96791;-75
2023/03/17 22:28:27;;;;;;;17.98;3.88;;;;;;;13.25;78.16;100368.28;10295139;28;96757;-75
2023/03/17 22:33:33;;;;;;;14.70;4.00;;;;;;;13.16;78.17;100373.16;10294083;28;97200;-75
2023/03/17 22:38:36;;;;;;;15.57;3.40;;;;;;;13.17;78.64;100372.25;10326893;28;96610;-75
2023/03/17 22:43:40;;;;;;;13.85;3.90;;;;;;;13.10;79.05;100366.41;10312345;28;96821;-75
2023/03/17 22:48:46;;;;;;;15.82;4.00;;;;;;;13.24;78.57;100357.81;10293833;28;96935;-75
2023/03/17 22:53:50;;;;;;;12.57;4.53;;;;;;;13.08;78.73;100360.34;10293089;28;97467;-75
2023/03/17 22:58:53;;;;;;;13.95;5.65;;;;;;;12.77;80.46;100361.84;10293703;28;96644;-75
2023/03/17 23:03:58;;;;;;;17.00;5.95;;;;;;;12.80;80.82;100356.41;10301893;28;97012;-75
2023/03/17 23:09:01;;;;;;;15.57;4.40;;;;;;;12.90;80.05;100360.34;10333852;28;96817;-75
2023/03/17 23:14:05;;;;;;;17.92;4.78;;;;;;;12.94;79.86;100361.91;10335037;28;96708;-75
2023/03/17 23:19:09;;;;;;;14.38;4.93;;;;;;;13.00;79.51;100370.38;10299026;28;96935;-75
2023/03/17 23:24:12;;;;;;;18.10;5.18;;;;;;;13.08;79.88;100375.31;10292130;28;96622;-75
2023/03/17 23:29:16;;;;;;;14.80;4.75;;;;;;;12.84;80.45;100376.47;10291786;28;96703;-75
2023/03/17 23:34:21;;;;;;;20.98;4.90;;;;;;;12.93;80.63;100391.91;10313008;28;97557;-75